Time;durP1;ratioP1;P1;durP2;ratioP2;P2;SDS_P1;SDS_P2;PMS_P1;PMS_P2;Temp;Humidity;BMP_temperature;BMP_pressure;BME280_temperature;BME280_humidity;BME280_pressure;Samples;Min_cycle;Max_cycle;Signal;HPM_P1;HPM_P2
2023/06/25 00:00:30;;;;;;;3.93;2.57;;;22.90;68.20;;;;;;5027350;28;20037;-16
2023/06/25 00:02:56;;;;;;;6.68;2.85;;;22.90;68.30;;;;;;5002192;28;20548;-17
2023/06/25 00:05:22;;;;;;;5.13;2.53;;;22.80;68.40;;;;;;5038320;28;20025;-16
2023/06/25 00:07:47;;;;;;;4.30;2.60;;;22.80;68.50;;;;;;5023966;28;20021;-16
2023/06/25 00:10:13;;;;;;;4.53;2.70;;;22.80;68.70;;;;;;5023738;28;20028;-16
2023/06/25 00:12:39;;;;;;;4.53;2.75;;;22.70;68.80;;;;;;5037335;28;20044;-16
2023/06/25 00:15:05;;;;;;;5.50;2.93;;;22.70;69.00;;;;;;5023712;28;20063;-17
2023/06/25 00:17:31;;;;;;;4.80;3.00;;;22.60;69.10;;;;;;5003411;28;20033;-16
2023/06/25 00:19:58;;;;;;;6.80;3.20;;;22.60;69.30;;;;;;5013642;28;20522;-17
2023/06/25 00:22:24;;;;;;;4.60;3.05;;;22.50;69.30;;;;;;5026143;28;20037;-16
2023/06/25 00:24:50;;;;;;;5.73;3.20;;;22.50;69.50;;;;;;5030223;28;20033;-16
2023/06/25 00:27:16;;;;;;;5.50;2.92;;;22.50;69.60;;;;;;5030580;28;20747;-16
2023/06/25 00:29:42;;;;;;;5.97;3.70;;;22.40;69.70;;;;;;5048770;28;20059;-17
2023/06/25 00:32:08;;;;;;;6.40;3.47;;;22.40;69.80;;;;;;5024197;28;20241;-16
2023/06/25 00:34:41;;;;;;;5.33;3.50;;;22.30;70.00;;;;;;5004520;28;20025;-16
2023/06/25 00:37:16;;;;;;;5.60;3.50;;;22.30;70.10;;;;;;5019911;28;20254;-16
2023/06/25 00:39:43;;;;;;;4.75;2.85;;;22.30;70.70;;;;;;5035258;28;20029;-16
2023/06/25 00:42:09;;;;;;;6.60;2.80;;;22.30;70.40;;;;;;5024695;28;20541;-16
2023/06/25 00:44:40;;;;;;;3.95;2.70;;;22.20;70.40;;;;;;5018286;28;20024;-16
2023/06/25 00:47:12;;;;;;;5.50;2.80;;;22.20;70.50;;;;;;5021306;28;20079;-16
2023/06/25 00:49:45;;;;;;;4.82;2.90;;;22.10;70.60;;;;;;5015632;28;20021;-16
2023/06/25 00:52:12;;;;;;;4.82;3.00;;;22.10;71.20;;;;;;5033871;28;20060;-16
2023/06/25 00:54:41;;;;;;;4.03;2.75;;;22.10;70.90;;;;;;5029010;28;20044;-16
2023/06/25 00:57:08;;;;;;;5.22;3.05;;;22.00;70.90;;;;;;5026482;28;20161;-16
2023/06/25 00:59:41;;;;;;;5.47;3.17;;;22.00;71.00;;;;;;5038346;28;20032;-16
2023/06/25 01:02:34;;;;;;;4.70;2.85;;;21.90;71.70;;;;;;5025521;28;20359;-16
2023/06/25 01:05:21;;;;;;;4.88;2.97;;;21.90;72.30;;;;;;5005588;28;20021;-16
2023/06/25 01:07:48;;;;;;;5.22;3.05;;;21.90;72.50;;;;;;5038618;28;20043;-16
2023/06/25 01:10:14;;;;;;;4.85;3.10;;;21.80;71.40;;;;;;5028482;28;20522;-16
2023/06/25 01:12:42;;;;;;;4.70;3.30;;;21.70;71.50;;;;;;5029864;28;20527;-16
2023/06/25 01:15:11;;;;;;;5.45;3.20;;;21.70;71.70;;;;;;5038572;28;20245;-16
2023/06/25 01:17:39;;;;;;;5.15;3.03;;;21.60;71.90;;;;;;5023916;28;20040;-16
2023/06/25 01:20:08;;;;;;;4.72;3.05;;;21.60;72.00;;;;;;5008235;28;20021;-16
2023/06/25 01:22:34;;;;;;;6.05;3.45;;;21.60;72.20;;;;;;5042959;28;20048;-16
2023/06/25 01:25:00;;;;;;;4.70;3.00;;;21.60;72.30;;;;;;5027635;28;20561;-16
2023/06/25 01:27:26;;;;;;;5.47;3.20;;;21.50;72.30;;;;;;5031574;28;20048;-16
2023/06/25 01:29:53;;;;;;;4.90;3.30;;;21.50;72.50;;;;;;5035915;28;20140;-17
2023/06/25 01:32:19;;;;;;;7.07;3.33;;;21.40;72.50;;;;;;5024532;28;20040;-16
2023/06/25 01:34:45;;;;;;;4.65;2.83;;;21.40;72.70;;;;;;5028058;28;20032;-17
2023/06/25 01:37:11;;;;;;;5.27;3.10;;;21.30;72.70;;;;;;5017650;28;20575;-16
2023/06/25 01:39:37;;;;;;;5.60;3.47;;;21.30;72.80;;;;;;5039867;28;20029;-16
2023/06/25 01:42:04;;;;;;;6.57;3.45;;;21.30;73.00;;;;;;5025737;28;20254;-16
2023/06/25 01:44:32;;;;;;;5.97;3.63;;;21.20;73.10;;;;;;5030660;28;20112;-16
2023/06/25 01:46:58;;;;;;;5.53;3.65;;;21.20;73.30;;;;;;5025620;28;20037;-17
2023/06/25 01:49:25;;;;;;;5.30;3.37;;;21.10;73.40;;;;;;5040802;28;20056;-16
2023/06/25 01:51:51;;;;;;;5.22;3.38;;;21.10;73.40;;;;;;5007726;28;20761;-16
2023/06/25 01:54:16;;;;;;;5.57;3.38;;;21.10;73.50;;;;;;5039787;28;20329;-16
2023/06/25 01:56:42;;;;;;;6.13;3.38;;;21.00;73.50;;;;;;5037305;28;20507;-17
2023/06/25 01:59:09;;;;;;;5.40;3.47;;;21.00;73.60;;;;;;5018047;28;20613;-16
2023/06/25 02:01:35;;;;;;;5.80;3.53;;;21.00;73.80;;;;;;5038500;28;20047;-16
2023/06/25 02:04:01;;;;;;;6.88;3.80;;;21.00;73.80;;;;;;5023194;28;20029;-16
2023/06/25 02:06:27;;;;;;;6.55;3.55;;;20.90;73.90;;;;;;5039720;28;20033;-16
2023/06/25 02:08:53;;;;;;;7.30;3.40;;;20.90;74.00;;;;;;5004652;28;20059;-16
2023/06/25 02:11:18;;;;;;;5.15;3.38;;;20.80;74.10;;;;;;5040445;28;20036;-16
2023/06/25 02:13:44;;;;;;;4.60;3.23;;;20.80;74.20;;;;;;5027729;28;20028;-16
2023/06/25 02:16:10;;;;;;;4.40;2.97;;;20.80;75.10;;;;;;5028696;28;20518;-15
2023/06/25 02:18:36;;;;;;;4.88;3.20;;;20.70;74.40;;;;;;5026690;28;20024;-15
2023/06/25 02:21:02;;;;;;;6.10;3.70;;;20.70;74.50;;;;;;5031518;28;20214;-15
2023/06/25 02:23:27;;;;;;;5.90;3.50;;;20.70;74.50;;;;;;5008731;28;20061;-16
2023/06/25 02:25:53;;;;;;;4.47;3.17;;;20.60;74.70;;;;;;5038649;28;20050;-16
2023/06/25 02:28:19;;;;;;;5.53;3.50;;;20.60;74.90;;;;;;5028107;28;20391;-16
2023/06/25 02:30:45;;;;;;;5.43;3.13;;;20.60;74.90;;;;;;5027369;28;20469;-16
2023/06/25 02:33:11;;;;;;;5.70;3.40;;;20.60;75.00;;;;;;5028007;28;20777;-16
2023/06/25 02:35:37;;;;;;;5.97;3.60;;;20.50;75.10;;;;;;5038673;28;20033;-16
2023/06/25 02:38:03;;;;;;;5.15;3.38;;;20.50;75.10;;;;;;5035006;28;20025;-17
2023/06/25 02:40:28;;;;;;;4.87;3.33;;;20.50;75.10;;;;;;5009865;28;20119;-16
2023/06/25 02:42:56;;;;;;;6.20;3.70;;;20.50;75.30;;;;;;5030953;28;20033;-16
2023/06/25 02:45:22;;;;;;;5.15;3.33;;;20.40;75.30;;;;;;5027826;28;20558;-16
2023/06/25 02:47:48;;;;;;;5.20;3.35;;;20.40;75.30;;;;;;5038082;28;20534;-16
2023/06/25 02:50:14;;;;;;;5.43;3.60;;;20.40;75.40;;;;;;5026545;28;20236;-16
2023/06/25 02:52:40;;;;;;;5.85;3.40;;;20.40;75.50;;;;;;5036942;28;20099;-16
2023/06/25 02:55:06;;;;;;;6.22;3.72;;;20.30;75.50;;;;;;5011562;28;20459;-15
2023/06/25 02:57:32;;;;;;;6.32;3.55;;;20.30;75.60;;;;;;5039197;28;20111;-16
2023/06/25 02:59:58;;;;;;;5.03;3.43;;;20.30;75.80;;;;;;5015202;28;20045;-16
2023/06/25 03:02:24;;;;;;;5.47;3.42;;;20.20;75.90;;;;;;5038734;28;20032;-16
2023/06/25 03:04:50;;;;;;;4.70;3.28;;;20.20;75.90;;;;;;5012588;28;20402;-16
2023/06/25 03:07:16;;;;;;;4.57;3.10;;;20.20;76.00;;;;;;5038958;28;20025;-15
2023/06/25 03:09:42;;;;;;;4.95;3.30;;;20.20;76.10;;;;;;5008027;28;20241;-15
2023/06/25 03:12:08;;;;;;;5.32;3.10;;;20.10;76.10;;;;;;5033588;28;20082;-16
2023/06/25 03:14:35;;;;;;;4.47;3.20;;;20.10;76.30;;;;;;5030782;28;20040;-16
2023/06/25 03:17:01;;;;;;;5.00;3.30;;;20.10;76.30;;;;;;5026319;28;20203;-16
2023/06/25 03:19:27;;;;;;;5.07;3.30;;;20.00;76.40;;;;;;5040014;28;20025;-16
2023/06/25 03:21:52;;;;;;;5.22;3.35;;;20.00;76.50;;;;;;5025963;28;20047;-16
2023/06/25 03:24:18;;;;;;;4.93;3.40;;;20.00;76.60;;;;;;5039016;28;20036;-16
2023/06/25 03:26:44;;;;;;;5.35;2.97;;;19.90;76.60;;;;;;5010642;28;20037;-15
2023/06/25 03:29:09;;;;;;;4.83;3.23;;;19.90;76.80;;;;;;5025258;28;20622;-16
2023/06/25 03:31:35;;;;;;;4.80;3.13;;;19.90;76.90;;;;;;5029461;28;20581;-15
2023/06/25 03:34:01;;;;;;;4.93;3.13;;;19.90;77.00;;;;;;5036645;28;20033;-16
2023/06/25 03:36:26;;;;;;;6.10;3.10;;;19.80;77.20;;;;;;5027875;28;20036;-15
2023/06/25 03:38:52;;;;;;;6.93;3.93;;;19.90;77.20;;;;;;5037688;28;20056;-16
2023/06/25 03:41:18;;;;;;;6.03;3.80;;;19.80;77.40;;;;;;5011078;28;20033;-16
2023/06/25 03:43:43;;;;;;;6.10;3.47;;;19.80;77.50;;;;;;5038438;28;20025;-16
2023/06/25 03:46:09;;;;;;;5.63;3.47;;;19.80;77.70;;;;;;5018227;28;20037;-16
2023/06/25 03:48:35;;;;;;;5.13;3.30;;;19.80;77.70;;;;;;5036568;28;20033;-15
2023/06/25 03:51:00;;;;;;;6.30;3.67;;;19.80;77.80;;;;;;5034238;28;20246;-16
2023/06/25 03:53:26;;;;;;;5.00;3.47;;;19.80;78.00;;;;;;5027355;28;20045;-16
2023/06/25 03:55:52;;;;;;;6.47;3.40;;;19.70;78.10;;;;;;5018524;28;20036;-16
2023/06/25 03:58:18;;;;;;;6.07;3.53;;;19.70;78.20;;;;;;5028128;28;20190;-16
2023/06/25 04:00:44;;;;;;;5.23;3.33;;;19.70;78.30;;;;;;5011070;28;20084;-16
2023/06/25 04:03:11;;;;;;;4.95;3.33;;;19.70;78.40;;;;;;5024365;28;20041;-16
2023/06/25 04:05:37;;;;;;;4.88;3.22;;;19.70;78.50;;;;;;5035887;28;20051;-16
2023/06/25 04:08:02;;;;;;;5.53;3.13;;;19.70;78.60;;;;;;5026401;28;20195;-16
2023/06/25 04:10:29;;;;;;;4.75;2.95;;;19.70;78.70;;;;;;5033935;28;20040;-16
2023/06/25 04:12:54;;;;;;;5.07;3.22;;;19.70;78.80;;;;;;5011522;28;20075;-16
2023/06/25 04:15:20;;;;;;;6.57;3.30;;;19.70;79.50;;;;;;5025112;28;20458;-16
2023/06/25 04:17:49;;;;;;;4.87;3.23;;;19.70;79.00;;;;;;5026897;28;20283;-16
2023/06/25 04:20:15;;;;;;;4.88;3.03;;;19.70;79.10;;;;;;5034827;28;20113;-16
2023/06/25 04:22:41;;;;;;;4.40;3.00;;;19.70;79.20;;;;;;5026201;28;20511;-15
2023/06/25 04:25:07;;;;;;;4.90;3.07;;;19.70;79.50;;;;;;5035699;28;20639;-16
2023/06/25 04:27:32;;;;;;;5.07;3.20;;;19.70;79.60;;;;;;5010014;28;21294;-15
2023/06/25 04:29:58;;;;;;;5.10;3.13;;;19.70;79.60;;;;;;5037363;28;20051;-15
2023/06/25 04:32:24;;;;;;;5.43;3.40;;;19.70;79.80;;;;;;5011948;28;20206;-16
2023/06/25 04:34:50;;;;;;;4.87;3.30;;;19.70;80.00;;;;;;5036821;28;20024;-16
2023/06/25 04:37:15;;;;;;;5.40;3.20;;;19.70;80.00;;;;;;5032764;28;20029;-16
2023/06/25 04:39:41;;;;;;;5.05;3.20;;;19.70;80.20;;;;;;5020114;28;20490;-16
2023/06/25 04:42:07;;;;;;;5.20;3.40;;;19.80;80.40;;;;;;5028408;28;20440;-17
2023/06/25 04:44:32;;;;;;;5.13;3.28;;;19.80;80.50;;;;;;5016491;28;20116;-16
2023/06/25 04:46:58;;;;;;;7.37;3.57;;;19.80;80.70;;;;;;5027972;28;20056;-16
2023/06/25 04:49:24;;;;;;;6.07;3.30;;;19.90;80.90;;;;;;5007621;28;20743;-16
2023/06/25 04:51:50;;;;;;;6.10;3.47;;;19.90;81.10;;;;;;5024783;28;20040;-16
2023/06/25 04:54:16;;;;;;;5.47;3.17;;;19.90;81.20;;;;;;5021677;28;20044;-16
2023/06/25 04:56:41;;;;;;;6.20;3.40;;;20.00;81.40;;;;;;5030352;28;20074;-16
2023/06/25 04:59:07;;;;;;;7.07;3.78;;;20.10;81.60;;;;;;5005715;28;20041;-16
2023/06/25 05:01:33;;;;;;;5.73;3.87;;;20.10;81.70;;;;;;5011701;28;20041;-16
2023/06/25 05:03:59;;;;;;;5.30;3.67;;;20.10;81.80;;;;;;5021536;28;20950;-16
2023/06/25 05:06:25;;;;;;;6.07;3.72;;;20.20;82.00;;;;;;5030959;28;20032;-16
2023/06/25 05:08:51;;;;;;;5.30;3.50;;;20.20;82.00;;;;;;5004646;28;20099;-16
2023/06/25 05:11:17;;;;;;;6.07;3.37;;;20.30;82.20;;;;;;5022025;28;20025;-16
2023/06/25 05:13:42;;;;;;;5.85;3.55;;;20.30;82.20;;;;;;4996051;28;20037;-16
2023/06/25 05:16:08;;;;;;;5.20;3.33;;;20.40;82.30;;;;;;5038129;28;20040;-16
2023/06/25 05:18:34;;;;;;;5.22;3.50;;;20.40;82.40;;;;;;5020555;28;20029;-16
2023/06/25 05:20:59;;;;;;;5.53;3.47;;;20.50;82.50;;;;;;5006771;28;20070;-16
2023/06/25 05:23:25;;;;;;;5.30;3.22;;;20.50;82.50;;;;;;5021423;28;20029;-16
2023/06/25 05:25:51;;;;;;;5.27;3.10;;;20.50;82.60;;;;;;5021476;28;20178;-16
2023/06/25 05:28:17;;;;;;;4.72;3.28;;;20.60;82.70;;;;;;5027286;28;20821;-16
2023/06/25 05:30:43;;;;;;;5.03;3.63;;;20.70;82.70;;;;;;5004411;28;20025;-16
2023/06/25 05:33:09;;;;;;;5.30;3.10;;;20.70;82.70;;;;;;5038926;28;20475;-16
2023/06/25 05:35:34;;;;;;;5.63;3.05;;;20.70;82.70;;;;;;5015676;28;20036;-16
2023/06/25 05:38:00;;;;;;;3.97;2.75;;;20.80;82.80;;;;;;5017027;28;20033;-16
2023/06/25 05:40:29;;;;;;;4.20;2.90;;;20.80;82.90;;;;;;5036527;28;20045;-17
2023/06/25 05:42:55;;;;;;;4.25;2.58;;;20.90;83.40;;;;;;5008151;28;20633;-16
2023/06/25 05:45:21;;;;;;;6.97;2.95;;;21.00;83.20;;;;;;5012151;28;20209;-16
2023/06/25 05:47:47;;;;;;;5.00;3.03;;;21.00;83.20;;;;;;5036991;28;20068;-16
2023/06/25 05:50:13;;;;;;;6.05;3.00;;;21.10;83.40;;;;;;5029983;28;20112;-16
2023/06/25 05:52:41;;;;;;;4.03;2.67;;;21.20;83.40;;;;;;5006440;28;20040;-16
2023/06/25 05:55:07;;;;;;;5.30;2.92;;;21.30;83.60;;;;;;5040424;28;20962;-16
2023/06/25 05:57:33;;;;;;;4.23;2.70;;;21.30;83.50;;;;;;5018250;28;20037;-16
2023/06/25 05:59:59;;;;;;;3.83;2.75;;;21.40;83.50;;;;;;5007390;28;20153;-16
2023/06/25 06:02:24;;;;;;;4.23;2.80;;;21.50;83.50;;;;;;5038269;28;20052;-17
2023/06/25 06:04:50;;;;;;;4.97;2.90;;;21.60;83.50;;;;;;5026646;28;20117;-15
2023/06/25 06:07:16;;;;;;;3.73;2.33;;;21.70;83.60;;;;;;5026805;28;20040;-16
2023/06/25 06:09:41;;;;;;;4.20;2.70;;;21.80;83.60;;;;;;5019947;28;20344;-16
2023/06/25 06:12:07;;;;;;;3.97;2.70;;;21.80;83.80;;;;;;5039367;28;20047;-16
2023/06/25 06:14:34;;;;;;;3.83;2.60;;;21.90;83.80;;;;;;5022951;28;20287;-16
2023/06/25 06:17:00;;;;;;;4.70;2.80;;;22.00;83.80;;;;;;5008783;28;20449;-18
2023/06/25 06:19:26;;;;;;;5.13;2.75;;;22.10;83.70;;;;;;5038870;28;20086;-19
2023/06/25 06:21:51;;;;;;;5.00;2.60;;;22.20;83.60;;;;;;5025632;28;20262;-18
2023/06/25 06:24:17;;;;;;;3.70;2.70;;;22.30;83.60;;;;;;5012620;28;20032;-18
2023/06/25 06:26:43;;;;;;;4.73;2.40;;;22.40;83.60;;;;;;5038181;28;20221;-19
2023/06/25 06:29:09;;;;;;;4.13;2.50;;;22.40;83.30;;;;;;5028556;28;20421;-18
2023/06/25 06:31:34;;;;;;;3.37;2.10;;;22.50;83.20;;;;;;5012255;28;20063;-19
2023/06/25 06:34:00;;;;;;;2.95;2.05;;;22.60;83.00;;;;;;5032950;28;20955;-18
2023/06/25 06:36:26;;;;;;;3.47;2.10;;;22.70;82.90;;;;;;5036626;28;20028;-19
2023/06/25 06:38:51;;;;;;;3.97;2.10;;;22.80;82.80;;;;;;5000301;28;20364;-19
2023/06/25 06:41:17;;;;;;;3.72;1.98;;;22.80;82.70;;;;;;5040225;28;20099;-18
2023/06/25 06:43:44;;;;;;;2.60;1.67;;;22.90;82.70;;;;;;5020576;28;20518;-19
2023/06/25 06:46:10;;;;;;;3.20;1.92;;;23.00;82.70;;;;;;5048604;28;20041;-18
2023/06/25 06:48:35;;;;;;;3.50;2.10;;;23.10;82.90;;;;;;4996947;28;20082;-19
2023/06/25 06:51:01;;;;;;;3.00;2.00;;;23.20;82.70;;;;;;5034650;28;20040;-19
2023/06/25 06:53:28;;;;;;;3.50;2.00;;;23.20;82.60;;;;;;5023084;28;20075;-19
2023/06/25 06:55:54;;;;;;;2.72;1.75;;;23.30;82.80;;;;;;5009951;28;20033;-19
2023/06/25 06:58:19;;;;;;;3.63;1.95;;;23.40;82.80;;;;;;5037616;28;20091;-18
2023/06/25 07:00:45;;;;;;;2.90;1.90;;;23.50;82.70;;;;;;5017192;28;20380;-18
2023/06/25 07:03:11;;;;;;;2.58;1.83;;;23.60;82.70;;;;;;5040013;28;20033;-19
2023/06/25 07:05:37;;;;;;;3.00;1.90;;;23.70;82.60;;;;;;5021893;28;20091;-19
2023/06/25 07:08:03;;;;;;;3.83;1.85;;;23.80;82.40;;;;;;5039533;28;20024;-19
2023/06/25 07:10:28;;;;;;;2.70;1.90;;;23.90;83.10;;;;;;4998239;28;20033;-19
2023/06/25 07:12:54;;;;;;;2.67;1.80;;;24.00;82.30;;;;;;5035743;28;20280;-19
2023/06/25 07:15:20;;;;;;;2.95;1.88;;;24.00;82.10;;;;;;4986509;28;20040;-18
2023/06/25 07:17:45;;;;;;;2.43;1.80;;;24.10;82.10;;;;;;5028891;28;20131;-19
2023/06/25 07:20:12;;;;;;;2.80;1.90;;;24.30;82.20;;;;;;5010705;28;20061;-20
2023/06/25 07:22:40;;;;;;;2.30;1.80;;;24.30;81.80;;;;;;5015063;28;20044;-19
2023/06/25 07:25:09;;;;;;;3.00;1.77;;;24.50;81.70;;;;;;5023031;28;20331;-19
2023/06/25 07:27:35;;;;;;;2.30;1.60;;;24.50;80.90;;;;;;5015870;28;20025;-19
2023/06/25 07:30:03;;;;;;;2.80;1.80;;;24.70;81.40;;;;;;5020594;28;20554;-18
2023/06/25 07:32:29;;;;;;;3.28;1.90;;;24.80;81.00;;;;;;5011860;28;20037;-19
2023/06/25 07:34:57;;;;;;;2.30;1.60;;;24.90;81.00;;;;;;5036740;28;20037;-19
2023/06/25 07:37:23;;;;;;;2.72;1.83;;;25.00;80.80;;;;;;5006825;28;20032;-19
2023/06/25 07:39:49;;;;;;;2.40;1.70;;;25.10;80.80;;;;;;5019738;28;20410;-19
2023/06/25 07:42:15;;;;;;;3.30;1.90;;;25.20;80.60;;;;;;5011406;28;20151;-19
2023/06/25 07:44:40;;;;;;;2.30;1.83;;;25.30;80.30;;;;;;5036406;28;20056;-19
2023/06/25 07:47:06;;;;;;;2.50;1.90;;;25.40;80.20;;;;;;5023964;28;20118;-19
2023/06/25 07:49:32;;;;;;;3.13;1.95;;;25.50;80.20;;;;;;5033053;28;20025;-19
2023/06/25 07:51:58;;;;;;;3.10;1.90;;;25.60;80.20;;;;;;5005184;28;20098;-19
2023/06/25 07:54:23;;;;;;;3.75;1.92;;;25.70;80.10;;;;;;5034879;28;20036;-19
2023/06/25 07:56:49;;;;;;;5.73;2.10;;;25.80;79.90;;;;;;5013869;28;20087;-18
2023/06/25 07:59:15;;;;;;;3.65;2.03;;;25.90;80.00;;;;;;5016514;28;20025;-19
2023/06/25 08:01:41;;;;;;;2.43;1.77;;;26.10;80.20;;;;;;5015299;28;20470;-19
2023/06/25 08:04:07;;;;;;;2.65;2.10;;;26.30;81.20;;;;;;5037326;28;20094;-18
2023/06/25 08:06:33;;;;;;;2.70;2.03;;;26.50;81.30;;;;;;4986384;28;20779;-19
2023/06/25 08:08:59;;;;;;;2.75;2.20;;;26.80;80.90;;;;;;5026867;28;20025;-18
2023/06/25 08:11:25;;;;;;;3.30;2.00;;;27.00;80.40;;;;;;5023736;28;20024;-19
2023/06/25 08:13:50;;;;;;;3.10;1.98;;;27.30;80.90;;;;;;5032821;28;20067;-19
2023/06/25 08:16:16;;;;;;;3.20;2.00;;;27.60;81.30;;;;;;5031443;28;20527;-19
2023/06/25 08:18:42;;;;;;;2.60;1.95;;;27.90;82.70;;;;;;5025137;28;20028;-19
2023/06/25 08:21:09;;;;;;;2.05;1.80;;;28.40;83.80;;;;;;5036616;28;20115;-19
2023/06/25 08:23:34;;;;;;;2.80;2.10;;;28.90;84.10;;;;;;5002241;28;20032;-19
2023/06/25 08:26:00;;;;;;;3.08;2.08;;;29.40;84.00;;;;;;5037862;28;20158;-19
2023/06/25 08:28:26;;;;;;;2.60;2.40;;;30.00;83.60;;;;;;5011810;28;20436;-20
2023/06/25 08:30:51;;;;;;;3.78;2.30;;;30.60;82.80;;;;;;5032282;28;20029;-16
2023/06/25 08:33:17;;;;;;;3.13;2.30;;;31.10;82.80;;;;;;5020160;28;20455;-16
2023/06/25 08:35:43;;;;;;;2.65;2.20;;;31.70;81.80;;;;;;5032170;28;20542;-16
2023/06/25 08:38:09;;;;;;;2.93;2.27;;;32.20;79.90;;;;;;4982084;28;20670;-17
2023/06/25 08:40:38;;;;;;;2.72;2.45;;;32.70;78.30;;;;;;5026650;28;20051;-17
2023/06/25 08:43:04;;;;;;;2.45;2.25;;;33.10;76.60;;;;;;5018620;28;20078;-17
2023/06/25 08:45:30;;;;;;;2.97;2.67;;;33.50;75.90;;;;;;5015360;28;20067;-17
2023/06/25 08:47:59;;;;;;;2.90;2.70;;;33.90;75.20;;;;;;5030285;28;20062;-17
2023/06/25 08:50:25;;;;;;;2.95;2.65;;;34.30;74.30;;;;;;5028165;28;20597;-16
2023/06/25 08:52:51;;;;;;;2.72;2.47;;;34.60;73.30;;;;;;5036032;28;20032;-17
2023/06/25 08:55:18;;;;;;;3.10;2.80;;;35.00;72.70;;;;;;4990537;28;20683;-16
2023/06/25 08:57:44;;;;;;;2.72;2.53;;;35.40;70.30;;;;;;5037014;28;20070;-16
2023/06/25 09:00:13;;;;;;;14.77;2.70;;;35.70;69.70;;;;;;5019676;28;20053;-17
2023/06/25 09:02:39;;;;;;;2.80;2.50;;;36.00;68.40;;;;;;5037141;28;20029;-16
2023/06/25 09:05:12;;;;;;;3.20;2.90;;;36.20;66.10;;;;;;5022893;28;20028;-17
2023/06/25 09:07:45;;;;;;;3.33;2.75;;;36.50;63.20;;;;;;5035414;28;20031;-16
2023/06/25 09:10:12;;;;;;;3.20;2.90;;;36.70;61.50;;;;;;4993003;28;20029;-17
2023/06/25 09:12:38;;;;;;;3.30;3.00;;;36.90;63.00;;;;;;5036545;28;20029;-16
2023/06/25 09:15:06;;;;;;;3.47;3.17;;;37.10;61.70;;;;;;5010760;28;20032;-17
2023/06/25 09:17:31;;;;;;;3.00;2.80;;;37.20;59.60;;;;;;5040553;28;20025;-17
2023/06/25 09:20:07;;;;;;;3.10;2.80;;;37.40;60.00;;;;;;5028654;28;20364;-17
2023/06/25 09:22:33;;;;;;;3.67;3.22;;;37.60;56.50;;;;;;5039774;28;20052;-17
2023/06/25 09:24:59;;;;;;;3.47;3.17;;;37.70;59.30;;;;;;4999326;28;20116;-16
2023/06/25 09:27:25;;;;;;;3.70;3.40;;;37.90;58.10;;;;;;5030793;28;20087;-17
2023/06/25 09:29:55;;;;;;;3.65;3.35;;;38.00;57.20;;;;;;5005494;28;20376;-17
2023/06/25 09:32:21;;;;;;;3.23;2.80;;;38.20;55.60;;;;;;5037051;28;20766;-17
2023/06/25 09:34:47;;;;;;;3.50;2.97;;;38.30;56.20;;;;;;5014892;28;20116;-17
2023/06/25 09:37:13;;;;;;;3.63;3.33;;;38.40;55.00;;;;;;5041087;28;20475;-16
2023/06/25 09:39:39;;;;;;;3.57;3.27;;;38.60;55.00;;;;;;5009648;28;20036;-17
2023/06/25 09:42:06;;;;;;;3.40;3.10;;;38.80;54.80;;;;;;5026615;28;20267;-17
2023/06/25 09:44:35;;;;;;;3.95;3.50;;;39.00;53.50;;;;;;5018480;28;20025;-17
2023/06/25 09:47:07;;;;;;;3.75;3.38;;;39.10;52.80;;;;;;5024645;28;20055;-17
2023/06/25 09:49:33;;;;;;;3.70;3.40;;;39.20;52.10;;;;;;5025362;28;20043;-17
2023/06/25 09:52:09;;;;;;;3.53;3.22;;;39.30;51.60;;;;;;5006007;28;20456;-17
2023/06/25 09:54:39;;;;;;;3.60;3.30;;;39.40;49.70;;;;;;5022947;28;20045;-17
2023/06/25 09:57:11;;;;;;;3.72;3.42;;;39.40;49.40;;;;;;5031159;28;22956;-16
2023/06/25 09:59:38;;;;;;;3.72;3.42;;;39.40;48.50;;;;;;5022054;28;20510;-16
2023/06/25 10:02:07;;;;;;;3.83;3.50;;;39.50;49.60;;;;;;5030962;28;20147;-17
2023/06/25 10:04:34;;;;;;;3.90;3.60;;;39.60;49.00;;;;;;5028708;28;20078;-17
2023/06/25 10:07:01;;;;;;;7.30;3.65;;;39.70;49.00;;;;;;5042746;28;20013;-17
2023/06/25 10:09:27;;;;;;;3.90;3.60;;;39.80;48.00;;;;;;5033532;28;20082;-17
2023/06/25 10:11:56;;;;;;;3.83;3.53;;;39.80;48.10;;;;;;5010167;28;20459;-16
2023/06/25 10:14:22;;;;;;;3.95;3.65;;;39.90;47.80;;;;;;5036092;28;20643;-17
2023/06/25 10:16:55;;;;;;;3.78;3.47;;;39.90;47.40;;;;;;5013590;28;20048;-17
2023/06/25 10:19:23;;;;;;;3.90;3.60;;;40.00;45.70;;;;;;5030473;28;20051;-17
2023/06/25 10:22:06;;;;;;;3.33;3.03;;;40.10;46.70;;;;;;4991863;28;20037;-17
2023/06/25 10:24:42;;;;;;;4.03;3.73;;;40.20;44.50;;;;;;5024301;28;20623;-17
2023/06/25 10:27:26;;;;;;;3.47;3.17;;;40.20;44.40;;;;;;5023008;28;20033;-17
2023/06/25 10:29:57;;;;;;;4.03;3.72;;;40.30;45.00;;;;;;5039864;28;20029;-17
2023/06/25 10:32:24;;;;;;;4.20;3.90;;;40.40;44.20;;;;;;5019017;28;20279;-17
2023/06/25 10:34:53;;;;;;;4.18;3.78;;;40.50;45.40;;;;;;5021488;28;20021;-17
2023/06/25 10:37:19;;;;;;;3.67;3.37;;;40.60;44.80;;;;;;5026901;28;20040;-17
2023/06/25 10:39:45;;;;;;;3.70;3.40;;;40.70;45.40;;;;;;5007356;28;20294;-17
2023/06/25 10:42:12;;;;;;;3.78;3.47;;;40.80;44.70;;;;;;5009570;28;20338;-17
2023/06/25 10:44:38;;;;;;;3.67;3.37;;;41.00;44.30;;;;;;4995293;28;20097;-17
2023/06/25 10:47:05;;;;;;;4.20;3.90;;;41.00;43.60;;;;;;5023682;28;20406;-17
2023/06/25 10:49:31;;;;;;;4.10;3.80;;;41.10;43.00;;;;;;5030455;28;20025;-17
2023/06/25 10:52:03;;;;;;;3.63;3.33;;;41.10;42.60;;;;;;5035138;28;20080;-17
2023/06/25 10:54:30;;;;;;;4.40;4.00;;;41.10;41.40;;;;;;5006037;28;20060;-17
2023/06/25 10:57:07;;;;;;;4.25;3.85;;;41.10;41.60;;;;;;5006207;28;20395;-17
2023/06/25 10:59:33;;;;;;;4.30;3.90;;;41.10;40.80;;;;;;5012342;28;20041;-17
2023/06/25 11:02:13;;;;;;;3.85;3.55;;;41.10;41.90;;;;;;5025368;28;20028;-17
2023/06/25 11:04:39;;;;;;;3.90;3.60;;;41.20;40.50;;;;;;5018114;28;20033;-17
2023/06/25 11:07:05;;;;;;;3.73;3.43;;;41.30;41.60;;;;;;5036876;28;20482;-17
2023/06/25 11:09:30;;;;;;;3.70;3.40;;;41.40;41.50;;;;;;5009994;28;20501;-17
2023/06/25 11:11:56;;;;;;;4.13;3.83;;;41.50;41.10;;;;;;4987447;28;20830;-17
2023/06/25 11:14:23;;;;;;;3.95;3.55;;;41.60;41.10;;;;;;5037472;28;20024;-17
2023/06/25 11:16:49;;;;;;;4.00;3.70;;;41.70;40.60;;;;;;5018055;28;20119;-17
2023/06/25 11:19:15;;;;;;;3.63;3.33;;;41.80;40.80;;;;;;5020105;28;20033;-17
2023/06/25 11:21:40;;;;;;;3.97;3.67;;;41.90;40.20;;;;;;5033406;28;20765;-18
2023/06/25 11:24:10;;;;;;;3.90;3.60;;;42.00;40.00;;;;;;5024268;28;20279;-17
2023/06/25 11:26:43;;;;;;;4.45;4.05;;;42.00;38.60;;;;;;5033729;28;20344;-17
2023/06/25 11:29:10;;;;;;;4.55;3.35;;;42.10;37.80;;;;;;5021401;28;20052;-17
2023/06/25 11:31:48;;;;;;;3.63;3.33;;;42.10;38.00;;;;;;5002868;28;20075;-17
2023/06/25 11:34:25;;;;;;;3.63;3.33;;;42.00;36.90;;;;;;5030206;28;20033;-17
2023/06/25 11:36:51;;;;;;;3.33;3.03;;;42.00;37.20;;;;;;5026971;28;20558;-17
2023/06/25 11:39:18;;;;;;;4.20;3.90;;;41.90;38.30;;;;;;5033320;28;20503;-17
2023/06/25 11:41:44;;;;;;;3.92;3.58;;;41.90;37.20;;;;;;5007495;28;20021;-17
2023/06/25 11:44:17;;;;;;;3.80;3.37;;;41.90;37.30;;;;;;5010628;28;20017;-17
2023/06/25 11:46:52;;;;;;;3.50;3.20;;;41.90;37.50;;;;;;5014549;28;20442;-17
2023/06/25 11:49:18;;;;;;;3.95;3.65;;;41.90;37.70;;;;;;5029722;28;20033;-17
2023/06/25 11:51:44;;;;;;;3.80;3.50;;;41.90;37.00;;;;;;5029220;28;20033;-17
2023/06/25 11:54:11;;;;;;;4.00;3.70;;;42.00;36.90;;;;;;5038265;28;20021;-17
2023/06/25 11:56:37;;;;;;;3.77;3.47;;;42.00;36.50;;;;;;4997169;28;20421;-17
2023/06/25 11:59:03;;;;;;;3.28;2.97;;;42.00;36.60;;;;;;4983784;28;20386;-17
2023/06/25 12:01:31;;;;;;;3.67;3.38;;;42.00;36.50;;;;;;5019626;28;20282;-17
2023/06/25 12:03:57;;;;;;;3.85;3.55;;;42.20;36.70;;;;;;5024318;28;20029;-17
2023/06/25 12:06:25;;;;;;;4.33;3.93;;;42.20;36.70;;;;;;5011861;28;20760;-17
2023/06/25 12:08:51;;;;;;;3.42;3.13;;;42.40;36.30;;;;;;5034229;28;20240;-17
2023/06/25 12:11:17;;;;;;;3.55;3.25;;;42.50;36.50;;;;;;5024583;28;20029;-17
2023/06/25 12:13:43;;;;;;;3.93;3.63;;;42.60;36.50;;;;;;5004357;28;20157;-17
2023/06/25 12:16:09;;;;;;;3.95;3.65;;;42.60;36.30;;;;;;5025584;28;20036;-17
2023/06/25 12:18:34;;;;;;;4.47;4.07;;;42.70;36.30;;;;;;5011991;28;20033;-18
2023/06/25 12:21:00;;;;;;;4.37;3.97;;;42.70;35.90;;;;;;5029934;28;20088;-17
2023/06/25 12:23:26;;;;;;;4.75;3.55;;;42.70;36.00;;;;;;5028553;28;20419;-18
2023/06/25 12:25:51;;;;;;;4.83;3.40;;;42.70;35.70;;;;;;5019553;28;20570;-17
2023/06/25 12:28:17;;;;;;;3.60;3.30;;;42.70;35.40;;;;;;5022184;28;20009;-17
2023/06/25 12:30:43;;;;;;;3.60;3.30;;;42.60;35.30;;;;;;5000170;28;20158;-17
2023/06/25 12:33:08;;;;;;;3.95;3.55;;;42.60;35.00;;;;;;5016175;28;20030;-17
2023/06/25 12:35:34;;;;;;;3.50;3.20;;;42.50;35.20;;;;;;5026729;28;20120;-17
2023/06/25 12:38:00;;;;;;;4.32;3.92;;;42.40;35.20;;;;;;5031557;28;20115;-17
2023/06/25 12:40:26;;;;;;;3.73;3.43;;;42.30;34.80;;;;;;5035067;28;20064;-17
2023/06/25 12:42:51;;;;;;;3.72;3.42;;;42.30;34.50;;;;;;5008817;28;20317;-17
2023/06/25 12:45:17;;;;;;;3.70;3.40;;;42.10;34.50;;;;;;5009639;28;20029;-17